This is the latest recevied weather packets stored in our database for station/object K1RFS. If no packets are shown the sender has not sent any weather packets the latest 10 day(s).
| Time | Temp. | Humidity | Pressure | Rain* | Wind** | Luminosity | Snow |
|---|---|---|---|---|---|---|---|
| 1787609962 | 29.44° C | 36% | 1004.9 hPa | 0 mm | - | 118 W/m² | - |
| 1787609661 | 29.44° C | 39% | 1005.3 hPa | 0 mm | - | 114 W/m² | - |
| 1787609356 | 28.89° C | 40% | 1004.9 hPa | 0 mm | - | 153 W/m² | - |
| 1787609056 | 29.44° C | 40% | 1005.2 hPa | 0 mm | - | 142 W/m² | - |
| 1787608751 | 30° C | 42% | 1005 hPa | 0 mm | - | 124 W/m² | - |
| 1787608450 | 29.44° C | 39% | 1005.2 hPa | 0 mm | - | 355 W/m² | - |
| 1787608147 | 29.44° C | 43% | 1005.5 hPa | 0 mm | - | 275 W/m² | - |
| 1787607843 | 29.44° C | 43% | 1005.3 hPa | 0 mm | - | 183 W/m² | - |
| 1787607540 | 28.33° C | 51% | 1005.4 hPa | 0 mm | - | 569 W/m² | - |
| 1787607237 | 27.78° C | 46% | 1005.4 hPa | 0 mm | - | 178 W/m² | - |
| 1787606933 | 27.78° C | 43% | 1005.5 hPa | 0 mm | - | 167 W/m² | - |
| 1787606630 | 26.11° C | 52% | 1005.8 hPa | 0 mm | - | 612 W/m² | - |
| 1787606325 | 26.11° C | 49% | 1005.8 hPa | 0 mm | - | 158 W/m² | - |
| 1787606020 | 23.89° C | 48% | 1005.6 hPa | 1.78 mm | - | 123 W/m² | - |
| 1787605719 | 22.22° C | 56% | 1005.6 hPa | 16.76 mm | - | 106 W/m² | - |
| 1787605414 | 22.22° C | 64% | 1006.1 hPa | 21.08 mm | - | 87 W/m² | - |
| 1787605110 | 25° C | 53% | 1006.3 hPa | 10.67 mm | - | 65 W/m² | - |
| 1787604809 | 26.67° C | 48% | 1006.2 hPa | 3.05 mm | - | 65 W/m² | - |
| 1787604505 | 28.33° C | 37% | 1006 hPa | 0 mm | - | 65 W/m² | - |
| 1787604204 | 27.78° C | 35% | 1006 hPa | 0 mm | - | 66 W/m² | - |
| 1787603899 | 27.22° C | 47% | 1006 hPa | 3.05 mm | - | 69 W/m² | - |
| 1787603599 | 27.78° C | 49% | 1006.1 hPa | 3.05 mm | - | 82 W/m² | - |
| 1787603295 | 31.67° C | 34% | 1006 hPa | 0 mm | - | 81 W/m² | - |
| 1787602990 | 32.22° C | 26% | 1005.8 hPa | 0 mm | - | 75 W/m² | - |
| 1787602686 | 32.78° C | 24% | 1005.6 hPa | 0 mm | - | 82 W/m² | - |
* Rain latest hour (hover to see other rain measurements)
** Current wind speed in m/s (hover to see current wind gust speed)